createdAt,value
2019-06-26T00:04:17.746Z,24.90
2019-06-26T00:17:40.647Z,24.90
2019-06-26T00:31:03.398Z,24.90
2019-06-26T00:44:26.309Z,24.90
2019-06-26T00:57:49.092Z,24.90
2019-06-26T01:11:11.928Z,24.90
2019-06-26T01:24:34.628Z,24.90
2019-06-26T01:37:57.465Z,24.90
2019-06-26T02:04:21.997Z,25.00
2019-06-26T02:17:29.197Z,25.00
2019-06-26T02:30:36.341Z,25.00
2019-06-26T02:43:43.493Z,25.00
2019-06-26T02:56:50.804Z,25.00
2019-06-26T03:09:57.989Z,25.00
2019-06-26T03:23:21.887Z,25.10
2019-06-26T03:36:44.470Z,25.10
2019-06-26T03:50:07.274Z,25.00
2019-06-26T04:03:30.315Z,25.10
2019-06-26T04:16:53.006Z,25.10
2019-06-26T04:30:15.753Z,25.10
2019-06-26T04:43:38.598Z,25.10
2019-06-26T04:57:01.486Z,25.10
2019-06-26T05:10:24.284Z,25.10
2019-06-26T05:49:54.983Z,25.10
2019-06-26T06:03:02.266Z,25.10
2019-06-26T06:16:09.627Z,25.10
2019-06-26T06:29:16.756Z,25.20
2019-06-26T06:42:24.043Z,25.20
2019-06-26T06:55:31.161Z,25.20
2019-06-26T07:08:54.944Z,25.20
2019-06-26T07:22:18.696Z,25.20
2019-06-26T07:35:40.600Z,25.20
2019-06-26T07:49:03.280Z,25.30
2019-06-26T08:15:27.684Z,25.30
2019-06-26T08:28:34.880Z,25.30
2019-06-26T08:41:42.080Z,25.40
2019-06-26T08:54:49.379Z,25.50
2019-06-26T09:07:56.546Z,25.50
2019-06-26T09:21:03.772Z,25.40
2019-06-26T09:34:27.576Z,25.40
2019-06-26T09:47:50.524Z,25.40
2019-06-26T10:01:13.257Z,25.30
2019-06-26T10:14:46.469Z,25.40
2019-06-26T10:27:58.885Z,25.40
2019-06-26T10:41:21.758Z,25.40
2019-06-26T10:54:44.778Z,25.40
2019-06-26T11:21:09.176Z,25.40
2019-06-26T11:34:16.503Z,25.40
2019-06-26T11:47:24.837Z,25.40
2019-06-26T12:00:32.242Z,25.40
2019-06-26T12:13:55.790Z,25.40
2019-06-26T12:27:18.852Z,25.40
2019-06-26T12:40:41.512Z,25.40
2019-06-26T12:54:04.270Z,25.40
2019-06-26T13:07:27.210Z,25.40
2019-06-26T13:20:52.592Z,25.50
2019-06-26T13:34:12.766Z,25.50
2019-06-26T14:13:43.745Z,25.50
2019-06-26T14:39:57.965Z,25.50
2019-06-26T14:53:05.251Z,25.50
2019-06-26T15:06:16.295Z,25.50
2019-06-26T15:19:37.043Z,25.50
2019-06-26T15:32:59.802Z,25.50
2019-06-26T15:46:22.546Z,25.50
2019-06-26T15:59:45.925Z,25.60
2019-06-26T16:13:08.271Z,25.60
2019-06-26T16:26:31.004Z,25.60
2019-06-26T16:39:53.823Z,25.50
2019-06-26T16:53:16.898Z,25.60
2019-06-26T17:06:39.564Z,25.60
2019-06-26T17:20:02.308Z,25.60
2019-06-26T17:33:25.087Z,25.60
2019-06-26T17:46:47.914Z,25.60
2019-06-26T18:00:10.707Z,25.60
2019-06-26T18:13:33.508Z,25.60
2019-06-26T18:26:56.658Z,25.60
2019-06-26T18:40:19.269Z,25.60
2019-06-26T18:53:52.698Z,25.40
2019-06-26T19:07:04.860Z,25.20
2019-06-26T19:20:27.612Z,24.90
2019-06-26T19:33:50.539Z,24.70
2019-06-26T19:47:13.337Z,24.60
2019-06-26T20:00:36.101Z,24.50
2019-06-26T20:13:58.854Z,24.40
2019-06-26T20:27:21.831Z,24.30
2019-06-26T20:40:46.064Z,24.20
2019-06-26T20:54:07.411Z,24.20
2019-06-26T21:07:30.235Z,24.00
2019-06-26T21:20:53.069Z,24.10
2019-06-26T21:34:15.784Z,24.40
2019-06-26T21:47:38.547Z,24.60
2019-06-26T22:01:01.403Z,24.70
2019-06-26T22:14:24.150Z,24.80
2019-06-26T22:27:46.999Z,24.80
2019-06-26T22:41:09.872Z,24.80
2019-06-26T22:54:32.633Z,24.90
2019-06-26T23:07:55.449Z,24.90
2019-06-26T23:48:20.296Z,24.50
